createdAt,value
2018-03-27T04:32:29.188Z,46.40
2018-03-27T04:34:58.193Z,52.73
2018-03-27T04:37:27.198Z,63.30
2018-03-27T04:39:55.413Z,55.70
2018-03-27T04:42:23.633Z,54.40
2018-03-27T04:44:51.864Z,55.83
2018-03-27T04:47:20.112Z,51.33
2018-03-27T04:49:48.357Z,46.57
2018-03-27T04:52:16.571Z,47.00
2018-03-27T04:54:44.841Z,47.77
2018-03-27T04:57:13.090Z,64.23
2018-03-27T04:59:41.298Z,50.97
2018-03-27T05:02:09.534Z,57.40
2018-03-27T05:04:37.781Z,51.43
2018-03-27T05:07:06.015Z,50.90
2018-03-27T05:09:35.012Z,44.33
2018-03-27T05:12:03.322Z,52.00
2018-03-27T05:14:31.578Z,44.10
2018-03-27T05:16:59.824Z,45.27
2018-03-27T05:19:28.030Z,44.47
2018-03-27T05:21:57.015Z,44.13
2018-03-27T05:24:25.291Z,37.40
2018-03-27T05:26:53.568Z,51.83
2018-03-27T05:29:21.817Z,48.20
2018-03-27T05:31:50.343Z,37.97
2018-03-27T05:34:18.713Z,47.87
2018-03-27T05:36:47.150Z,51.83
2018-03-27T05:39:15.589Z,39.03
2018-03-27T05:41:43.822Z,49.50
2018-03-27T05:44:12.086Z,46.00
2018-03-27T05:46:40.307Z,43.77
2018-03-27T05:49:08.509Z,47.80
2018-03-27T05:51:36.761Z,41.40
2018-03-27T05:54:04.969Z,45.17
2018-03-27T05:56:33.217Z,43.10
2018-03-27T05:59:01.461Z,40.63
2018-03-27T06:01:30.482Z,41.90
2018-03-27T06:03:58.744Z,43.23
2018-03-27T06:06:27.025Z,48.10
2018-03-27T06:08:55.236Z,40.97
2018-03-27T06:11:23.449Z,39.20
2018-03-27T06:13:51.670Z,38.40
2018-03-27T06:16:19.991Z,45.20
2018-03-27T06:18:48.313Z,43.90
2018-03-27T06:21:16.537Z,39.93
2018-03-27T06:23:44.772Z,39.83
2018-03-27T06:26:13.574Z,47.40
2018-03-27T06:28:41.917Z,41.03
2018-03-27T15:01:02.818Z,9.70
2018-03-27T15:03:31.812Z,12.40
2018-03-27T15:06:00.053Z,10.20
2018-03-27T15:08:29.781Z,10.37
2018-03-27T15:10:58.781Z,8.63
2018-03-27T15:13:27.769Z,8.30
2018-03-27T15:15:56.872Z,13.97
2018-03-27T15:18:25.853Z,13.17
2018-03-27T15:20:54.861Z,14.20
2018-03-27T15:23:23.085Z,11.40
2018-03-27T15:25:51.319Z,9.27
2018-03-27T15:28:20.414Z,11.83
2018-03-27T15:30:48.689Z,13.10
2018-03-27T15:33:16.912Z,10.03
2018-03-27T15:35:45.141Z,8.97
2018-03-27T15:38:13.352Z,12.90
2018-03-27T15:40:42.125Z,13.23
2018-03-27T15:43:10.658Z,12.00
2018-03-27T15:45:38.917Z,17.00
2018-03-27T15:48:07.148Z,12.53
2018-03-27T15:50:35.413Z,15.50
2018-03-27T15:53:03.641Z,13.30
2018-03-27T15:55:31.883Z,13.70
2018-03-27T15:58:00.116Z,10.90
2018-03-27T16:00:29.102Z,11.93
2018-03-27T16:02:57.440Z,10.20
2018-03-27T16:05:25.658Z,10.37
2018-03-27T16:07:54.278Z,16.53
2018-03-27T16:10:22.548Z,15.70
2018-03-27T16:12:51.540Z,15.37
2018-03-27T16:15:20.545Z,15.80
2018-03-27T16:17:48.885Z,12.60
2018-03-27T16:20:17.162Z,11.67
2018-03-27T16:22:45.342Z,13.73
2018-03-27T16:25:13.588Z,11.67
2018-03-27T16:27:42.030Z,14.97
2018-03-27T16:30:10.274Z,17.63
2018-03-27T16:32:38.576Z,16.80
2018-03-27T16:35:07.365Z,19.57
2018-03-27T16:37:35.585Z,21.00
2018-03-27T16:40:03.845Z,19.30
2018-03-27T16:42:32.058Z,19.03
2018-03-27T16:45:00.372Z,15.83
2018-03-27T16:47:29.242Z,16.20
2018-03-27T16:49:58.220Z,14.53
2018-03-27T16:52:26.469Z,17.43
2018-03-27T16:54:54.706Z,21.77
2018-03-27T16:57:22.916Z,15.60
2018-03-27T16:59:51.162Z,18.10
2018-03-27T17:02:19.436Z,15.90
2018-03-27T17:04:47.683Z,12.30
2018-03-27T17:07:16.001Z,18.30
2018-03-27T17:09:56.970Z,14.67
2018-03-27T17:12:25.188Z,13.77
2018-03-27T17:15:06.105Z,15.50
2018-03-27T17:17:34.868Z,19.43
2018-03-27T17:20:03.074Z,11.23
2018-03-27T17:22:32.053Z,15.07
2018-03-27T17:25:01.050Z,13.60
2018-03-27T17:27:30.049Z,18.80
2018-03-27T17:29:59.020Z,16.40
2018-03-27T17:32:27.257Z,13.67
2018-03-27T17:34:55.469Z,16.03
2018-03-27T17:37:23.776Z,24.13
2018-03-27T17:39:52.874Z,14.40
2018-03-27T17:42:21.096Z,17.27
2018-03-27T17:44:49.298Z,15.37
2018-03-27T17:47:17.532Z,13.23
2018-03-27T17:49:45.733Z,24.67
2018-03-27T17:52:14.021Z,16.83
2018-03-27T17:54:42.193Z,15.60
2018-03-27T17:57:12.001Z,13.13
2018-03-27T17:59:40.257Z,15.97
2018-03-27T18:02:09.218Z,16.87
2018-03-27T18:04:38.218Z,18.80
2018-03-27T18:07:06.422Z,12.40
2018-03-27T18:09:34.653Z,14.60
2018-03-27T18:12:02.936Z,20.40
2018-03-27T18:14:31.168Z,16.93
2018-03-27T18:17:00.884Z,12.37
2018-03-27T18:19:29.188Z,21.83
2018-03-27T18:21:58.176Z,16.00
2018-03-27T18:24:27.161Z,16.40
2018-03-27T18:26:56.177Z,14.65
2018-03-27T18:29:24.421Z,16.93
2018-03-27T18:31:52.738Z,17.80
2018-03-27T18:34:20.972Z,23.47
2018-03-27T18:36:49.160Z,24.87
2018-03-27T18:39:18.142Z,12.63
2018-03-27T18:41:46.402Z,18.20
2018-03-27T18:44:14.729Z,19.80
2018-03-27T18:46:43.029Z,18.27
2018-03-27T18:49:11.224Z,16.60
2018-03-27T18:51:39.627Z,21.70
2018-03-27T18:54:07.829Z,14.50
2018-03-27T18:56:36.033Z,19.73
2018-03-27T18:59:04.430Z,17.17
2018-03-27T19:01:32.636Z,21.47
2018-03-27T19:04:00.881Z,18.33
2018-03-27T19:06:29.110Z,24.67
2018-03-27T19:08:58.082Z,17.23
2018-03-27T19:11:26.317Z,14.43
2018-03-27T19:13:54.556Z,23.03
2018-03-27T19:16:22.856Z,16.57
2018-03-27T19:18:51.021Z,16.63
2018-03-27T19:21:19.222Z,14.97
2018-03-27T19:23:47.561Z,15.30
2018-03-27T19:26:15.845Z,20.50
2018-03-27T19:28:44.188Z,22.63
2018-03-27T19:31:13.941Z,21.00
2018-03-27T19:33:42.145Z,19.87
2018-03-27T19:36:10.361Z,25.37
2018-03-27T19:38:39.365Z,18.30
2018-03-27T19:41:08.580Z,16.03
2018-03-27T19:43:36.767Z,16.93
2018-03-27T19:46:05.048Z,17.90
2018-03-27T19:48:33.306Z,16.57
2018-03-27T19:51:01.530Z,19.50
2018-03-27T19:53:29.746Z,14.73
2018-03-27T19:55:58.029Z,13.40
2018-03-27T19:58:26.282Z,18.07
2018-03-27T20:00:54.509Z,16.43
2018-03-27T20:03:22.741Z,17.50
2018-03-27T20:05:51.804Z,17.53
2018-03-27T20:08:20.050Z,17.30
2018-03-27T20:10:48.274Z,22.30
2018-03-27T20:13:16.504Z,17.47
2018-03-27T20:15:44.736Z,17.30
2018-03-27T20:18:13.708Z,18.37
2018-03-27T20:20:41.956Z,15.67
2018-03-27T20:23:10.205Z,17.70
2018-03-27T20:25:38.445Z,22.33
2018-03-27T20:28:07.559Z,16.90
2018-03-27T20:30:35.718Z,13.80
2018-03-27T20:33:04.697Z,18.00
2018-03-27T20:35:33.629Z,16.17
2018-03-27T20:38:01.863Z,25.47
2018-03-27T20:40:30.071Z,25.60
2018-03-27T20:42:58.386Z,15.97
2018-03-27T20:45:26.597Z,42.30
2018-03-27T20:47:55.608Z,17.73
2018-03-27T20:50:23.818Z,17.10
2018-03-27T20:52:52.129Z,21.93
2018-03-27T20:55:20.454Z,21.47
2018-03-27T20:57:48.678Z,18.87
2018-03-27T21:00:17.062Z,29.80
2018-03-27T21:02:45.290Z,16.80
2018-03-27T21:05:13.509Z,20.80
2018-03-27T21:07:43.246Z,19.63
2018-03-27T21:10:12.222Z,21.83
2018-03-27T21:12:40.538Z,24.00
2018-03-27T21:15:08.764Z,19.80
2018-03-27T21:17:36.945Z,20.83
2018-03-27T21:20:05.177Z,19.60
2018-03-27T21:22:33.392Z,16.93
2018-03-27T21:25:01.701Z,21.20
2018-03-27T21:27:29.952Z,20.20
2018-03-27T21:29:58.136Z,19.80
2018-03-27T21:32:27.115Z,18.43
2018-03-27T21:34:55.344Z,14.70
2018-03-27T21:37:23.578Z,18.03
2018-03-27T21:39:52.662Z,14.20
2018-03-27T21:42:20.861Z,14.27
2018-03-27T21:44:49.208Z,19.57
2018-03-27T21:47:17.691Z,18.33
2018-03-27T21:49:45.963Z,19.43
2018-03-27T21:52:14.156Z,17.07
2018-03-27T21:54:43.242Z,14.47
2018-03-27T21:57:11.472Z,17.13
2018-03-27T21:59:39.685Z,16.83
2018-03-27T22:02:08.694Z,15.37
2018-03-27T22:04:37.680Z,16.93
2018-03-27T22:07:05.887Z,16.37
2018-03-27T22:09:34.289Z,20.93
2018-03-27T22:12:02.490Z,18.33
2018-03-27T22:14:31.681Z,13.43
2018-03-27T22:16:59.930Z,15.20
2018-03-27T22:19:28.185Z,17.37
2018-03-27T22:21:56.430Z,13.40
2018-03-27T22:24:25.439Z,13.20
2018-03-27T22:26:54.409Z,12.87
2018-03-27T22:29:22.682Z,13.93
2018-03-27T22:31:52.500Z,31.03
2018-03-27T22:34:20.672Z,13.60
2018-03-27T22:36:48.897Z,14.40
2018-03-27T22:39:17.804Z,12.97
2018-03-27T22:41:46.020Z,13.87
2018-03-27T22:44:14.240Z,12.90
